createdAt,value
2022-09-02T00:00:22.346Z,99.99
2022-09-02T00:01:22.347Z,99.99
2022-09-02T00:02:22.729Z,99.99
2022-09-02T00:03:22.990Z,99.99
2022-09-02T00:04:22.350Z,99.99
2022-09-02T00:05:22.350Z,99.99
2022-09-02T00:06:22.361Z,99.99
2022-09-02T00:07:22.355Z,99.99
2022-09-02T00:08:25.257Z,99.99
2022-09-02T00:09:22.359Z,99.99
2022-09-02T00:10:22.370Z,99.99
2022-09-02T00:11:22.564Z,99.99
2022-09-02T00:12:22.369Z,99.99
2022-09-02T00:13:22.484Z,99.99
2022-09-02T00:14:22.426Z,99.99
2022-09-02T00:15:23.489Z,99.99
2022-09-02T00:16:22.470Z,99.99
2022-09-02T00:17:22.373Z,99.99
2022-09-02T00:18:22.371Z,99.99
2022-09-02T00:19:25.170Z,99.99
2022-09-02T00:20:22.374Z,99.99
2022-09-02T00:21:22.384Z,99.99
2022-09-02T00:22:22.383Z,99.99
2022-09-02T00:23:22.564Z,99.99
2022-09-02T00:24:22.380Z,99.99
2022-09-02T00:25:22.382Z,99.99
2022-09-02T00:26:22.395Z,99.99
2022-09-02T00:27:22.395Z,99.99
2022-09-02T00:28:22.530Z,99.99
2022-09-02T00:29:22.397Z,99.99
2022-09-02T00:30:25.434Z,99.99
2022-09-02T00:31:22.512Z,99.99
2022-09-02T00:32:22.399Z,99.99
2022-09-02T00:33:22.576Z,99.99
2022-09-02T00:34:22.402Z,99.99
2022-09-02T00:35:22.399Z,99.99
2022-09-02T00:36:22.406Z,99.99
2022-09-02T00:37:22.403Z,99.99
2022-09-02T00:38:22.408Z,99.99
2022-09-02T00:39:22.438Z,99.99
2022-09-02T00:40:22.557Z,99.99
2022-09-02T00:41:25.252Z,99.99
2022-09-02T00:42:22.413Z,99.99
2022-09-02T00:43:22.529Z,99.99
2022-09-02T00:44:22.413Z,99.99
2022-09-02T00:45:22.443Z,99.99
2022-09-02T00:46:22.418Z,99.99
2022-09-02T00:47:22.426Z,99.99
2022-09-02T00:48:22.427Z,99.99
2022-09-02T00:49:23.458Z,99.99
2022-09-02T00:50:22.442Z,99.99
2022-09-02T00:51:22.436Z,99.99
2022-09-02T00:52:25.316Z,99.99
2022-09-02T00:53:22.627Z,99.99
2022-09-02T00:54:22.430Z,99.99
2022-09-02T00:55:22.438Z,99.99
2022-09-02T00:56:22.448Z,99.99
2022-09-02T00:57:22.439Z,99.99
2022-09-02T00:58:22.441Z,99.99
2022-09-02T00:59:22.446Z,99.99
2022-09-02T01:00:22.448Z,99.99
2022-09-02T01:01:22.860Z,99.99
2022-09-02T01:02:22.700Z,99.99
2022-09-02T01:03:22.665Z,99.99
2022-09-02T01:04:22.457Z,99.99
2022-09-02T01:05:22.455Z,99.99
2022-09-02T01:06:23.902Z,99.99
2022-09-02T01:07:22.466Z,99.99
2022-09-02T01:08:22.467Z,99.99
2022-09-02T01:09:22.467Z,99.99
2022-09-02T01:10:22.461Z,99.99
2022-09-02T01:11:22.466Z,99.99
2022-09-02T01:12:22.464Z,99.99
2022-09-02T01:13:22.584Z,99.99
2022-09-02T01:14:22.474Z,99.99
2022-09-02T01:15:22.470Z,99.99
2022-09-02T01:16:22.679Z,99.99
2022-09-02T01:17:22.481Z,99.99
2022-09-02T01:18:22.478Z,99.99
2022-09-02T01:19:22.778Z,99.99
2022-09-02T01:20:26.776Z,99.99
2022-09-02T01:21:22.484Z,99.99
2022-09-02T01:22:22.481Z,99.99
2022-09-02T01:23:22.873Z,99.99
2022-09-02T01:24:22.494Z,99.99
2022-09-02T01:25:22.486Z,99.99
2022-09-02T01:26:22.489Z,99.99
2022-09-02T01:27:22.330Z,99.99
2022-09-02T01:28:22.495Z,99.99
2022-09-02T01:29:22.496Z,99.99
2022-09-02T01:30:22.498Z,99.99
2022-09-02T01:31:22.638Z,99.99
2022-09-02T01:32:22.498Z,99.99
2022-09-02T01:33:25.332Z,99.99
2022-09-02T01:34:22.505Z,99.99
2022-09-02T01:35:22.534Z,99.99
2022-09-02T01:36:22.503Z,99.99
2022-09-02T01:37:22.513Z,99.99
2022-09-02T01:38:22.508Z,99.99
2022-09-02T01:39:22.511Z,99.99
2022-09-02T01:40:22.596Z,99.99
2022-09-02T01:41:22.515Z,99.99
2022-09-02T01:42:22.518Z,99.99
2022-09-02T01:43:22.623Z,99.99
2022-09-02T01:44:22.523Z,99.99
2022-09-02T01:45:22.526Z,99.99
2022-09-02T01:46:22.622Z,99.99
2022-09-02T01:47:22.526Z,99.99
2022-09-02T01:48:24.197Z,99.99
2022-09-02T01:49:22.527Z,99.99
2022-09-02T01:50:22.534Z,99.99
2022-09-02T01:51:25.553Z,99.99
2022-09-02T01:52:22.676Z,99.99
2022-09-02T01:53:22.803Z,99.99
2022-09-02T01:54:22.536Z,99.99
2022-09-02T01:55:22.544Z,99.99
2022-09-02T01:56:22.542Z,99.99
2022-09-02T01:57:22.544Z,99.99
2022-09-02T01:58:22.542Z,99.99
2022-09-02T01:59:22.548Z,99.99
2022-09-02T02:00:22.564Z,99.99
2022-09-02T02:01:22.720Z,99.99
2022-09-02T02:02:25.524Z,99.99
2022-09-02T02:03:23.236Z,99.99
2022-09-02T02:04:23.500Z,99.99
2022-09-02T02:05:22.603Z,99.99
2022-09-02T02:06:22.555Z,99.99
2022-09-02T02:07:22.560Z,99.99
2022-09-02T02:08:22.579Z,99.99
2022-09-02T02:09:22.566Z,99.99
2022-09-02T02:10:22.893Z,99.99
2022-09-02T02:11:22.566Z,99.99
2022-09-02T02:12:22.566Z,99.99
2022-09-02T02:13:26.221Z,99.99
2022-09-02T02:14:22.579Z,99.99
2022-09-02T02:16:22.719Z,99.99
2022-09-02T02:17:22.573Z,99.99
2022-09-02T02:18:23.033Z,99.99
2022-09-02T02:19:22.583Z,99.99
2022-09-02T02:20:22.583Z,99.99
2022-09-02T02:21:23.002Z,99.99
2022-09-02T02:22:22.586Z,99.99
2022-09-02T02:23:22.824Z,99.99
2022-09-02T02:24:25.397Z,99.99
2022-09-02T02:25:22.590Z,99.99
2022-09-02T02:26:22.740Z,99.99
2022-09-02T02:27:22.592Z,99.99
2022-09-02T02:28:22.597Z,99.99
2022-09-02T02:29:22.595Z,99.99
2022-09-02T02:30:22.603Z,99.99
2022-09-02T02:31:22.704Z,99.99
2022-09-02T02:32:22.614Z,99.99
2022-09-02T02:33:22.826Z,99.99
2022-09-02T02:34:22.606Z,99.99
2022-09-02T02:35:25.394Z,99.99
2022-09-02T02:36:22.607Z,99.99
2022-09-02T02:37:27.622Z,99.99
2022-09-02T02:38:23.694Z,99.99
2022-09-02T02:39:22.615Z,99.99
2022-09-02T02:40:22.814Z,99.99
2022-09-02T02:41:22.617Z,99.99
2022-09-02T02:42:22.623Z,99.99
2022-09-02T02:43:22.748Z,99.99
2022-09-02T02:44:22.647Z,99.99
2022-09-02T02:45:22.620Z,99.99
2022-09-02T02:46:25.605Z,99.99
2022-09-02T02:47:22.622Z,99.99
2022-09-02T02:48:22.623Z,99.99
2022-09-02T02:49:22.648Z,99.99
2022-09-02T02:50:22.635Z,99.99
2022-09-02T02:51:22.635Z,99.99
2022-09-02T02:52:22.629Z,99.99
2022-09-02T02:53:22.757Z,99.99
2022-09-02T02:54:22.661Z,99.99
2022-09-02T02:55:22.641Z,99.99
2022-09-02T02:56:22.642Z,99.99
2022-09-02T02:57:25.668Z,99.99
2022-09-02T02:58:22.645Z,99.99
2022-09-02T02:59:22.664Z,99.99
2022-09-02T03:00:22.650Z,99.99
2022-09-02T03:01:22.757Z,99.99
2022-09-02T03:02:22.965Z,99.99
2022-09-02T03:03:22.812Z,99.99
2022-09-02T03:04:22.673Z,99.99
2022-09-02T03:05:22.661Z,99.99
2022-09-02T03:06:28.646Z,99.99
2022-09-02T03:07:22.662Z,99.99
2022-09-02T03:08:25.415Z,99.99
2022-09-02T03:09:22.739Z,99.99
2022-09-02T03:10:22.670Z,99.99
2022-09-02T03:11:22.712Z,99.99
2022-09-02T03:12:22.677Z,99.99
2022-09-02T03:13:22.808Z,99.99
2022-09-02T03:14:22.714Z,99.99
2022-09-02T03:15:22.697Z,99.99
2022-09-02T03:16:22.822Z,99.99
2022-09-02T03:17:22.681Z,99.99
2022-09-02T03:18:22.676Z,99.99
2022-09-02T03:19:25.479Z,99.99
2022-09-02T03:20:23.382Z,99.99
2022-09-02T03:21:22.685Z,99.99
2022-09-02T03:22:22.688Z,99.99
2022-09-02T03:23:22.932Z,99.99
2022-09-02T03:24:22.709Z,99.99
2022-09-02T03:25:22.685Z,99.99
2022-09-02T03:26:22.696Z,99.99
2022-09-02T03:27:22.695Z,99.99
2022-09-02T03:28:22.691Z,99.99
2022-09-02T03:29:22.719Z,99.99
2022-09-02T03:30:22.700Z,99.99
2022-09-02T03:31:22.793Z,99.99
2022-09-02T03:32:23.153Z,99.99
2022-09-02T03:33:22.813Z,99.99
2022-09-02T03:34:22.743Z,99.99
2022-09-02T03:35:22.707Z,99.99
2022-09-02T03:36:22.709Z,99.99
2022-09-02T03:37:22.716Z,99.99
2022-09-02T03:38:22.722Z,99.99
2022-09-02T03:39:22.728Z,99.99
2022-09-02T03:40:22.881Z,99.99
2022-09-02T03:41:22.726Z,99.99
2022-09-02T03:42:22.723Z,99.99
2022-09-02T03:43:22.806Z,99.99
2022-09-02T03:44:22.739Z,99.99
2022-09-02T03:45:22.719Z,99.99
2022-09-02T03:46:22.868Z,99.99
2022-09-02T03:47:24.395Z,99.99
2022-09-02T03:48:22.576Z,99.99
2022-09-02T03:49:22.755Z,99.99
2022-09-02T03:50:22.729Z,99.99
2022-09-02T03:51:22.735Z,99.99
2022-09-02T03:52:22.740Z,99.99
2022-09-02T03:53:23.032Z,99.99
2022-09-02T03:54:22.755Z,99.99
2022-09-02T03:55:22.746Z,99.99
2022-09-02T03:56:22.743Z,99.99
2022-09-02T03:57:22.750Z,99.99
2022-09-02T03:58:23.327Z,99.99
2022-09-02T03:59:22.780Z,99.99
2022-09-02T04:00:22.753Z,99.99
2022-09-02T04:01:22.954Z,99.99
2022-09-02T04:02:23.160Z,99.99
2022-09-02T04:03:23.357Z,99.99
2022-09-02T04:04:25.209Z,99.99
2022-09-02T04:05:22.761Z,99.99
2022-09-02T04:06:22.761Z,99.99
2022-09-02T04:07:22.787Z,99.99
2022-09-02T04:08:22.784Z,99.99
2022-09-02T04:09:22.825Z,99.99
2022-09-02T04:10:22.784Z,99.99
2022-09-02T04:11:22.782Z,99.99
2022-09-02T04:12:22.772Z,99.99
2022-09-02T04:13:22.936Z,99.99
2022-09-02T04:14:22.792Z,99.99
2022-09-02T04:15:22.820Z,99.99
2022-09-02T04:16:23.014Z,99.99
2022-09-02T04:17:22.797Z,99.99
2022-09-02T04:18:25.835Z,99.99
2022-09-02T04:19:22.846Z,99.99
2022-09-02T04:20:22.826Z,99.99
2022-09-02T04:21:22.822Z,99.99
2022-09-02T04:22:22.826Z,99.99
2022-09-02T04:23:22.963Z,99.99
2022-09-02T04:24:22.813Z,99.99
2022-09-02T04:25:29.910Z,99.99
2022-09-02T04:26:22.799Z,99.99
2022-09-02T04:27:22.809Z,99.99
2022-09-02T04:28:22.825Z,99.99
2022-09-02T04:29:24.107Z,99.99
2022-09-02T04:30:22.808Z,99.99
2022-09-02T04:31:24.275Z,99.99
2022-09-02T04:32:22.804Z,99.99
2022-09-02T04:33:22.903Z,99.99
2022-09-02T04:34:22.850Z,99.99
2022-09-02T04:35:22.816Z,99.99
2022-09-02T04:36:22.807Z,99.99
2022-09-02T04:37:22.813Z,99.99
2022-09-02T04:38:22.815Z,99.99
2022-09-02T04:39:22.848Z,99.99
2022-09-02T04:40:26.000Z,99.99
2022-09-02T04:41:22.818Z,99.99
2022-09-02T04:42:22.818Z,99.99
2022-09-02T04:43:22.983Z,99.99
2022-09-02T04:44:22.841Z,99.99
2022-09-02T04:45:25.549Z,99.99
2022-09-02T04:46:36.151Z,99.99
2022-09-02T04:47:22.827Z,99.99
2022-09-02T04:48:22.827Z,99.99
2022-09-02T04:49:22.847Z,99.99
2022-09-02T04:50:22.833Z,99.99
2022-09-02T04:51:25.925Z,99.99
2022-09-02T04:52:22.835Z,99.99
2022-09-02T04:53:22.904Z,99.99
2022-09-02T04:54:22.880Z,99.99
2022-09-02T04:55:22.840Z,99.99
2022-09-02T04:56:22.848Z,99.99
2022-09-02T04:57:22.848Z,99.99
2022-09-02T04:58:22.851Z,99.99
2022-09-02T04:59:22.867Z,99.99
2022-09-02T05:00:22.872Z,99.99
2022-09-02T05:01:23.011Z,99.99
2022-09-02T05:02:26.134Z,99.99
2022-09-02T05:03:23.034Z,99.99
2022-09-02T05:04:22.875Z,99.99
2022-09-02T05:05:22.857Z,99.99
2022-09-02T05:06:22.863Z,99.99
2022-09-02T05:07:22.889Z,99.99
2022-09-02T05:08:22.863Z,99.99
2022-09-02T05:09:22.890Z,99.99
2022-09-02T05:10:22.866Z,99.99
2022-09-02T05:11:22.886Z,99.99
2022-09-02T05:12:22.876Z,99.99
2022-09-02T05:13:25.672Z,99.99
2022-09-02T05:14:22.893Z,99.99
2022-09-02T05:15:22.876Z,99.99
2022-09-02T05:16:23.027Z,99.99
2022-09-02T05:17:22.874Z,99.99
2022-09-02T05:18:22.727Z,99.99
2022-09-02T05:19:22.898Z,99.99
2022-09-02T05:20:22.883Z,99.99
2022-09-02T05:21:22.886Z,99.99
2022-09-02T05:22:22.892Z,99.99
2022-09-02T05:23:22.994Z,99.99
2022-09-02T05:24:28.568Z,99.99
2022-09-02T05:25:22.889Z,99.99
2022-09-02T05:26:22.897Z,99.99
2022-09-02T05:27:23.534Z,99.99
2022-09-02T05:28:22.895Z,99.99
2022-09-02T05:29:22.895Z,99.99
2022-09-02T05:30:22.898Z,99.99
2022-09-02T05:31:23.083Z,99.99
2022-09-02T05:32:22.901Z,99.99
2022-09-02T05:33:22.920Z,99.99
2022-09-02T05:34:22.916Z,99.99
2022-09-02T05:35:26.073Z,99.99
2022-09-02T05:36:22.917Z,99.99
2022-09-02T05:37:22.910Z,99.99
2022-09-02T05:38:22.913Z,99.99
2022-09-02T05:39:22.920Z,99.99
2022-09-02T05:40:25.131Z,99.99
2022-09-02T05:41:22.926Z,99.99
2022-09-02T05:42:22.970Z,99.99
2022-09-02T05:43:23.088Z,99.99
2022-09-02T05:44:22.927Z,99.99
2022-09-02T05:45:22.923Z,99.99
2022-09-02T05:46:26.173Z,99.99
2022-09-02T05:47:22.981Z,99.99
2022-09-02T05:48:22.925Z,99.99
2022-09-02T05:49:22.940Z,99.99
2022-09-02T05:50:23.176Z,99.99
2022-09-02T05:51:22.940Z,99.99
2022-09-02T05:52:22.934Z,99.99
2022-09-02T05:53:22.957Z,99.99
2022-09-02T05:54:22.946Z,99.99
2022-09-02T05:55:22.942Z,99.99
2022-09-02T05:56:22.947Z,99.99
2022-09-02T05:57:22.976Z,99.99
2022-09-02T05:58:22.946Z,99.99
2022-09-02T05:59:22.949Z,99.99
2022-09-02T06:00:22.971Z,99.99
2022-09-02T06:01:23.615Z,99.99
2022-09-02T06:02:23.149Z,99.99
2022-09-02T06:03:23.363Z,99.99
2022-09-02T06:04:22.960Z,99.99
2022-09-02T06:05:22.979Z,99.99
2022-09-02T06:06:22.964Z,99.99
2022-09-02T06:07:22.963Z,99.99
2022-09-02T06:08:22.974Z,99.99
2022-09-02T06:09:22.967Z,99.99
2022-09-02T06:10:23.004Z,99.99
2022-09-02T06:11:22.982Z,99.99
2022-09-02T06:12:22.976Z,99.99
2022-09-02T06:13:23.226Z,99.99
2022-09-02T06:14:22.978Z,99.99
2022-09-02T06:15:22.987Z,99.99
2022-09-02T06:16:23.139Z,99.99
2022-09-02T06:17:22.991Z,99.99
2022-09-02T06:18:25.053Z,99.99
2022-09-02T06:19:22.982Z,99.99
2022-09-02T06:20:22.999Z,99.99
2022-09-02T06:21:22.988Z,99.99
2022-09-02T06:22:22.993Z,99.99
2022-09-02T06:23:23.681Z,99.99
2022-09-02T06:24:23.061Z,99.99
2022-09-02T06:25:23.012Z,99.99
2022-09-02T06:26:22.996Z,99.99
2022-09-02T06:27:22.999Z,99.58
2022-09-02T06:28:23.008Z,99.1
2022-09-02T06:29:23.004Z,99.34
2022-09-02T06:30:23.019Z,99.44
2022-09-02T06:31:23.302Z,98.58
2022-09-02T06:32:23.011Z,98.19
2022-09-02T06:33:23.093Z,98.05
2022-09-02T06:34:23.014Z,97.57
2022-09-02T06:35:23.042Z,96.99
2022-09-02T06:36:23.017Z,95.89
2022-09-02T06:37:23.011Z,95.5
2022-09-02T06:38:23.014Z,95.65
2022-09-02T06:39:23.023Z,95.45
2022-09-02T06:40:23.151Z,94.88
2022-09-02T06:41:23.025Z,93.87
2022-09-02T06:42:23.024Z,94.15
2022-09-02T06:43:23.222Z,93.1
2022-09-02T06:44:23.030Z,92.52
2022-09-02T06:45:24.192Z,91.94
2022-09-02T06:46:23.168Z,91.6
2022-09-02T06:47:23.035Z,91.36
2022-09-02T06:48:23.046Z,90.78
2022-09-02T06:49:23.041Z,90.01
2022-09-02T06:50:23.058Z,89.48
2022-09-02T06:51:23.038Z,89.67
2022-09-02T06:52:23.044Z,88.75
2022-09-02T06:53:23.224Z,87.98
2022-09-02T06:54:23.050Z,88.27
2022-09-02T06:55:23.060Z,87.6
2022-09-02T06:56:26.185Z,87.02
2022-09-02T06:57:24.720Z,87.12
2022-09-02T06:58:23.057Z,86.82
2022-09-02T06:59:23.053Z,87.4
2022-09-02T07:00:23.065Z,87.7
2022-09-02T07:01:23.377Z,88.27
2022-09-02T07:02:23.067Z,87.5
2022-09-02T07:03:23.189Z,87.74
2022-09-02T07:04:23.068Z,87.45
2022-09-02T07:05:23.086Z,86.48
2022-09-02T07:06:23.068Z,86.39
2022-09-02T07:07:26.156Z,86
2022-09-02T07:08:23.070Z,85.85
2022-09-02T07:09:23.071Z,86.19
2022-09-02T07:10:23.103Z,86.14
2022-09-02T07:11:23.074Z,85.17
2022-09-02T07:12:23.080Z,85.75
2022-09-02T07:13:23.161Z,85.75
2022-09-02T07:14:23.091Z,85.27
2022-09-02T07:15:23.101Z,84.54
2022-09-02T07:16:29.186Z,84.98
2022-09-02T07:17:23.090Z,84.11
2022-09-02T07:18:26.096Z,84.35
2022-09-02T07:19:23.283Z,84.25
2022-09-02T07:20:23.154Z,83.87
2022-09-02T07:21:23.104Z,84.35
2022-09-02T07:22:23.122Z,84.48
2022-09-02T07:23:23.143Z,84.2
2022-09-02T07:24:23.136Z,83.66
2022-09-02T07:25:23.121Z,83.66
2022-09-02T07:26:23.121Z,83.27
2022-09-02T07:27:23.121Z,82.79
2022-09-02T07:28:23.163Z,81.92
2022-09-02T07:29:26.123Z,81.53
2022-09-02T07:30:23.680Z,81.53
2022-09-02T07:31:23.215Z,81.48
2022-09-02T07:32:23.120Z,81.19
2022-09-02T07:33:23.330Z,81.09
2022-09-02T07:34:23.160Z,81.19
2022-09-02T07:35:23.159Z,80.55
2022-09-02T07:36:23.134Z,79.93
2022-09-02T07:37:23.226Z,80.12
2022-09-02T07:38:23.130Z,80.61
2022-09-02T07:39:23.127Z,80.8
2022-09-02T07:40:24.036Z,80.9
2022-09-02T07:41:23.136Z,80.8
2022-09-02T07:42:23.240Z,80.8
2022-09-02T07:43:23.207Z,80.71
2022-09-02T07:44:23.141Z,81.09
2022-09-02T07:45:23.182Z,80.51
2022-09-02T07:46:23.241Z,80.71
2022-09-02T07:47:23.168Z,80.12
2022-09-02T07:48:23.153Z,79.87
2022-09-02T07:49:26.431Z,80.16
2022-09-02T07:50:24.348Z,80.16
2022-09-02T07:51:29.107Z,80.16
2022-09-02T07:52:23.631Z,79.82
2022-09-02T07:53:23.732Z,79.39
2022-09-02T07:54:23.590Z,79.33
2022-09-02T07:55:23.589Z,79.1
2022-09-02T07:56:23.600Z,79.62
2022-09-02T07:57:23.598Z,79.04
2022-09-02T07:58:24.356Z,79.47
2022-09-02T07:59:23.600Z,78.36
2022-09-02T08:00:23.639Z,78.27
2022-09-02T08:01:26.156Z,77.82
2022-09-02T08:02:26.467Z,77.98
2022-09-02T08:03:23.652Z,78.31
2022-09-02T08:04:23.648Z,78.02
2022-09-02T08:05:23.657Z,78.11
2022-09-02T08:06:36.758Z,76.66
2022-09-02T08:07:23.654Z,77.34
2022-09-02T08:08:23.640Z,77.63
2022-09-02T08:09:23.631Z,77.53
2022-09-02T08:10:23.634Z,76.6
2022-09-02T08:11:23.625Z,76.86
2022-09-02T08:12:24.846Z,77.53
2022-09-02T08:13:27.538Z,78.31
2022-09-02T08:14:23.729Z,78.05
2022-09-02T08:15:23.627Z,78.05
2022-09-02T08:16:24.543Z,76.99
2022-09-02T08:17:23.923Z,75.92
2022-09-02T08:18:24.993Z,75.92
2022-09-02T08:19:23.638Z,76.41
2022-09-02T08:20:23.707Z,77.53
2022-09-02T08:21:23.639Z,77.19
2022-09-02T08:22:23.783Z,76.83
2022-09-02T08:23:39.341Z,76.35
2022-09-02T08:24:26.459Z,76.6
2022-09-02T08:25:23.645Z,75.77
2022-09-02T08:26:23.749Z,75.38
2022-09-02T08:27:23.645Z,74.9
2022-09-02T08:28:23.775Z,74.7
2022-09-02T08:29:23.659Z,74.45
2022-09-02T08:30:23.834Z,73.96
2022-09-02T08:31:23.780Z,73.8
2022-09-02T08:32:23.671Z,73.58
2022-09-02T08:33:23.828Z,74.41
2022-09-02T08:34:23.665Z,74.26
2022-09-02T08:35:23.669Z,74.97
2022-09-02T08:36:23.661Z,74.29
2022-09-02T08:37:23.664Z,74.1
2022-09-02T08:38:23.868Z,73.96
2022-09-02T08:40:23.964Z,73.96
2022-09-02T08:41:23.673Z,73.86
2022-09-02T08:42:23.689Z,73.28
2022-09-02T08:43:23.772Z,74.06
2022-09-02T08:44:23.683Z,73.71
2022-09-02T08:45:23.749Z,73.38
2022-09-02T08:46:23.780Z,73.58
2022-09-02T08:47:23.690Z,73.25
2022-09-02T08:48:25.015Z,73.64
2022-09-02T08:49:23.702Z,73.93
2022-09-02T08:50:23.685Z,73.05
2022-09-02T08:51:23.716Z,73.09
2022-09-02T08:52:23.710Z,73.09
2022-09-02T08:53:23.747Z,73.03
2022-09-02T08:54:23.770Z,73.03
2022-09-02T08:55:23.700Z,72.64
2022-09-02T08:56:26.836Z,72.49
2022-09-02T08:57:23.708Z,71.03
2022-09-02T08:58:23.849Z,70.93
2022-09-02T08:59:23.724Z,71.61
2022-09-02T09:00:23.719Z,70.57
2022-09-02T09:01:23.882Z,70.83
2022-09-02T09:02:24.920Z,70.15
2022-09-02T09:03:23.924Z,70.35
2022-09-02T09:04:23.719Z,70.7
2022-09-02T09:05:23.724Z,71.03
2022-09-02T09:06:23.746Z,71.03
2022-09-02T09:07:23.766Z,70.93
2022-09-02T09:08:24.373Z,69.96
2022-09-02T09:09:23.727Z,69.48
2022-09-02T09:10:23.734Z,69.18
2022-09-02T09:11:23.747Z,68.54
2022-09-02T09:12:23.750Z,68.63
2022-09-02T09:13:23.733Z,69.02
2022-09-02T09:14:23.735Z,69.02
2022-09-02T09:15:23.745Z,69.02
2022-09-02T09:16:23.891Z,69.54
2022-09-02T09:17:23.742Z,69.64
2022-09-02T09:18:23.892Z,69.54
2022-09-02T09:19:23.756Z,69.51
2022-09-02T09:20:23.583Z,69.32
2022-09-02T09:22:23.757Z,68.48
2022-09-02T09:23:27.383Z,67.34
2022-09-02T09:24:23.755Z,67.44
2022-09-02T09:25:23.760Z,66.96
2022-09-02T09:26:23.779Z,66.82
2022-09-02T09:27:23.852Z,66.56
2022-09-02T09:28:24.043Z,67.28
2022-09-02T09:29:23.763Z,67.28
2022-09-02T09:30:23.773Z,67.18
2022-09-02T09:31:23.907Z,67.41
2022-09-02T09:32:23.777Z,65.82
2022-09-02T09:33:23.905Z,65.69
2022-09-02T09:34:26.822Z,66.17
2022-09-02T09:35:23.772Z,66.02
2022-09-02T09:36:23.808Z,65.69
2022-09-02T09:37:24.056Z,65.59
2022-09-02T09:38:23.781Z,65.92
2022-09-02T09:39:23.788Z,65.82
2022-09-02T09:40:23.999Z,65.59
2022-09-02T09:41:23.806Z,65.43
2022-09-02T09:42:23.791Z,66.5
2022-09-02T09:43:23.815Z,65.79
2022-09-02T09:44:23.821Z,66.08
2022-09-02T09:45:26.811Z,66.37
2022-09-02T09:46:23.822Z,66.47
2022-09-02T09:47:23.801Z,67.34
2022-09-02T09:48:23.805Z,67.37
2022-09-02T09:49:23.808Z,65.69
2022-09-02T09:50:24.280Z,65.69
2022-09-02T09:51:23.842Z,65.08
2022-09-02T09:52:23.810Z,65.37
2022-09-02T09:53:24.005Z,65.17
2022-09-02T09:54:23.813Z,65.4
2022-09-02T09:55:27.693Z,66.08
2022-09-02T09:56:27.346Z,66.3
2022-09-02T09:57:24.263Z,66.5
2022-09-02T09:58:23.940Z,66.4
2022-09-02T09:59:23.818Z,66.5
2022-09-02T10:00:23.822Z,65.75
2022-09-02T10:01:23.997Z,65.75
2022-09-02T10:02:24.080Z,65.53
2022-09-02T10:03:23.942Z,65.37
2022-09-02T10:04:44.730Z,65.24
2022-09-02T10:05:23.833Z,65.33
2022-09-02T10:06:23.836Z,65.2
2022-09-02T10:07:30.095Z,65.17
2022-09-02T10:08:23.838Z,65.34
2022-09-02T10:09:23.843Z,65.47
2022-09-02T10:10:23.840Z,65.63
2022-09-02T10:11:23.843Z,66.21
2022-09-02T10:12:23.874Z,66.6
2022-09-02T10:13:23.872Z,66.79
2022-09-02T10:14:25.525Z,66.4
2022-09-02T10:15:23.864Z,66.11
2022-09-02T10:16:27.292Z,65.47
2022-09-02T10:17:23.861Z,65.72
2022-09-02T10:18:26.723Z,65.63
2022-09-02T10:19:23.861Z,65.89
2022-09-02T10:20:23.860Z,65.69
2022-09-02T10:21:23.863Z,66.37
2022-09-02T10:22:23.859Z,66.5
2022-09-02T10:23:23.869Z,66.11
2022-09-02T10:24:23.868Z,65.33
2022-09-02T10:25:23.872Z,65.56
2022-09-02T10:27:23.873Z,64.04
2022-09-02T10:28:24.005Z,62.97
2022-09-02T10:29:26.663Z,63
2022-09-02T10:30:23.894Z,63.1
2022-09-02T10:31:24.002Z,63.87
2022-09-02T10:32:23.884Z,63.62
2022-09-02T10:33:23.893Z,63.39
2022-09-02T10:34:23.886Z,63
2022-09-02T10:35:23.891Z,63.55
2022-09-02T10:36:27.535Z,63.65
2022-09-02T10:37:23.898Z,63.91
2022-09-02T10:38:23.934Z,63.23
2022-09-02T10:39:23.905Z,63.42
2022-09-02T10:40:27.029Z,63.84
2022-09-02T10:41:23.910Z,64.14
2022-09-02T10:42:23.906Z,63.49
2022-09-02T10:43:24.012Z,63.84
2022-09-02T10:44:23.903Z,64.14
2022-09-02T10:45:23.912Z,63.84
2022-09-02T10:46:24.027Z,63.45
2022-09-02T10:47:31.900Z,64.07
2022-09-02T10:48:24.122Z,63.87
2022-09-02T10:49:23.918Z,63.59
2022-09-02T10:50:23.942Z,63.59
2022-09-02T10:51:26.928Z,63.62
2022-09-02T10:52:23.937Z,63.03
2022-09-02T10:53:24.118Z,62.84
2022-09-02T10:54:25.903Z,62.74
2022-09-02T10:55:23.926Z,62.71
2022-09-02T10:56:23.928Z,62.13
2022-09-02T10:57:24.243Z,62.9
2022-09-02T10:58:23.937Z,63.49
2022-09-02T10:59:23.939Z,63.32
2022-09-02T11:00:23.948Z,62.71
2022-09-02T11:01:24.096Z,62.93
2022-09-02T11:02:23.964Z,62.93
2022-09-02T11:03:24.240Z,62.97
2022-09-02T11:04:28.185Z,62.87
2022-09-02T11:05:23.965Z,62.55
2022-09-02T11:06:24.546Z,63.55
2022-09-02T11:07:23.968Z,62.97
2022-09-02T11:08:26.294Z,63.36
2022-09-02T11:09:24.019Z,63.52
2022-09-02T11:10:23.965Z,63.42
2022-09-02T11:11:23.974Z,62.97
2022-09-02T11:12:23.976Z,62.77
2022-09-02T11:13:24.075Z,63.55
2022-09-02T11:14:23.969Z,63.29
2022-09-02T11:15:24.040Z,63.75
2022-09-02T11:16:24.239Z,63.36
2022-09-02T11:17:23.986Z,63.45
2022-09-02T11:18:24.000Z,63.62
2022-09-02T11:19:26.767Z,63.17
2022-09-02T11:20:24.598Z,63.52
2022-09-02T11:21:23.979Z,64.11
2022-09-02T11:22:27.797Z,64.01
2022-09-02T11:23:26.781Z,64.2
2022-09-02T11:24:23.984Z,64.69
2022-09-02T11:25:23.991Z,65.37
2022-09-02T11:26:23.985Z,64.72
2022-09-02T11:27:42.770Z,64.43
2022-09-02T11:28:23.989Z,63.94
2022-09-02T11:29:23.999Z,63.29
2022-09-02T11:30:23.998Z,62.9
2022-09-02T11:31:24.004Z,62.58
2022-09-02T11:32:25.727Z,62.38
2022-09-02T11:33:24.149Z,62.84
2022-09-02T11:34:27.046Z,63.17
2022-09-02T11:35:24.491Z,63.32
2022-09-02T11:36:25.319Z,63.42
2022-09-02T11:37:24.035Z,64.56
2022-09-02T11:38:26.964Z,64.75
2022-09-02T11:39:53.926Z,64.49
2022-09-02T11:40:41.919Z,63.94
2022-09-02T11:41:44.855Z,63.94
2022-09-02T11:42:41.425Z,63.94
2022-09-02T11:43:41.412Z,63.36
2022-09-02T11:44:41.453Z,63.26
2022-09-02T11:45:41.535Z,63.68
2022-09-02T11:46:41.542Z,63
2022-09-02T11:47:51.168Z,63.55
2022-09-02T11:48:41.920Z,63.07
2022-09-02T11:49:41.427Z,62.94
2022-09-02T11:50:41.912Z,63.55
2022-09-02T11:51:41.431Z,63.91
2022-09-02T11:52:41.441Z,63.62
2022-09-02T11:53:42.476Z,63.75
2022-09-02T11:54:41.453Z,64.04
2022-09-02T11:55:41.430Z,63.55
2022-09-02T11:56:41.427Z,63.98
2022-09-02T11:57:41.452Z,63.71
2022-09-02T11:58:41.435Z,63.94
2022-09-02T11:59:41.440Z,64.14
2022-09-02T12:00:41.441Z,64.72
2022-09-02T12:01:46.657Z,64.43
2022-09-02T12:02:41.447Z,63.81
2022-09-02T12:04:55.725Z,64.49
2022-09-02T12:05:11.763Z,64.17
2022-09-02T12:06:11.470Z,64.59
2022-09-02T12:07:12.909Z,64.53
2022-09-02T12:08:10.979Z,64.43
2022-09-02T12:09:10.818Z,64.14
2022-09-02T12:10:11.091Z,64.53
2022-09-02T12:11:12.097Z,64.07
2022-09-02T12:12:10.811Z,63.2
2022-09-02T12:13:11.998Z,64.07
2022-09-02T12:14:10.835Z,63.36
2022-09-02T12:15:10.823Z,63.87
2022-09-02T12:16:10.921Z,62.41
2022-09-02T12:17:11.020Z,62.97
2022-09-02T12:18:10.822Z,62.48
2022-09-02T12:19:11.573Z,62.58
2022-09-02T12:20:10.865Z,62.41
2022-09-02T12:21:21.260Z,61.74
2022-09-02T12:22:13.634Z,61.35
2022-09-02T12:23:10.859Z,61.83
2022-09-02T12:24:10.902Z,62.41
2022-09-02T12:25:10.845Z,63.03
2022-09-02T12:26:15.932Z,62.74
2022-09-02T12:27:10.875Z,61.7
2022-09-02T12:28:10.838Z,61.93
2022-09-02T12:29:11.542Z,62.7
2022-09-02T12:30:10.901Z,61.63
2022-09-02T12:31:11.143Z,61.28
2022-09-02T12:32:10.987Z,61.6
2022-09-02T12:33:13.654Z,61.9
2022-09-02T12:34:12.884Z,62.57
2022-09-02T12:35:10.859Z,61.93
2022-09-02T12:36:10.870Z,61.8
2022-09-02T12:37:11.483Z,61.57
2022-09-02T12:38:11.210Z,61.47
2022-09-02T12:39:12.301Z,61.47
2022-09-02T12:40:15.331Z,62.03
2022-09-02T12:41:15.290Z,62.51
2022-09-02T12:42:10.884Z,61.87
2022-09-02T12:43:10.875Z,61.96
2022-09-02T12:44:14.489Z,62.23
2022-09-02T12:45:12.072Z,63
2022-09-02T12:46:11.018Z,62.71
2022-09-02T12:47:10.911Z,63.17
2022-09-02T12:48:11.196Z,62.87
2022-09-02T12:49:10.930Z,62.77
2022-09-02T12:50:11.062Z,63.07
2022-09-02T12:51:11.031Z,63
2022-09-02T12:52:10.896Z,62.71
2022-09-02T12:53:10.890Z,63
2022-09-02T12:54:10.907Z,61.83
2022-09-02T12:55:10.894Z,61.25
2022-09-02T12:56:10.895Z,61.25
2022-09-02T12:57:10.893Z,61.64
2022-09-02T12:58:10.896Z,61.83
2022-09-02T12:59:10.918Z,61.57